Latest Weather Observations for Cooktown

IDQ60801

Issued at 8:32 am EST Tuesday 30 May 2017 (issued every 30 minutes, with the page automatically refreshed every 10 minutes)

About weather observations | Map of weather stations | Latest weather observations for QLD | Other Formats
Station Details ID: 031209 Name: COOKTOWN AIRPORT Lat: -15.45 Lon: 145.19 Height: 4.8 m
Data from the previous 72 hours. | See also: Recent months at Cooktown
Date/Time
EST
Temp
°C
App
Temp
°C
Dew
Point
°C
Rel
Hum
%
Delta-T
°C
Wind Press
QNH
hPa
Press
MSL
hPa
Rain since
9am
mm
Dir  Spd
km/h
Gust
km/h
Spd
kts
Gust
kts
30/08:30am 24.6 23.6 18.8 70 3.7 SE 22 37 12 20 1016.3 - 0.0
30/08:00am 24.4 23.4 18.9 71 3.5 SE 22 33 12 18 1015.7 - 0.0
30/07:30am 23.8 23.0 18.4 72 3.4 SE 20 32 11 17 1015.4 - 0.0
30/07:00am 23.4 22.5 18.1 72 3.3 SE 20 32 11 17 1015.4 - 0.0
30/06:30am 23.6 21.4 17.8 70 3.6 SE 26 37 14 20 1015.2 - 0.0
30/06:00am 23.5 22.4 17.7 70 3.6 SE 20 35 11 19 1014.9 1014.9 0.0
30/05:30am 23.5 22.3 17.4 68 3.8 SE 20 32 11 17 1014.6 - 0.0
30/05:00am 23.6 22.0 16.4 64 4.4 SE 20 35 11 19 1014.6 - 0.0
30/04:30am 23.4 21.8 16.1 63 4.4 SE 19 33 10 18 1014.8 - 0.0
30/04:00am 23.3 21.6 15.8 62 4.5 SE 19 24 10 13 1014.9 - 0.0
30/03:30am 23.6 22.0 16.4 64 4.4 SSE 20 30 11 16 1015.0 - 0.0
30/03:00am 23.3 22.5 17.0 67 3.9 SE 17 32 9 17 1015.1 1015.1 0.0
30/02:30am 23.1 23.7 17.8 72 3.3 SE 11 15 6 8 1015.2 - 0.0
30/02:00am 23.7 23.2 17.8 69 3.7 SSE 17 26 9 14 1015.3 - 0.0
30/01:30am 23.8 22.8 18.0 70 3.6 SE 20 33 11 18 1015.6 - 0.0
30/01:00am 23.7 23.4 18.3 71 3.4 SE 17 30 9 16 1015.8 - 0.0
30/12:30am 23.7 23.9 18.5 72 3.3 SE 15 28 8 15 1016.0 - 0.0
30/12:00am 23.8 23.2 18.9 74 3.1 SSE 20 32 11 17 1016.0 1016.1 0.0
 
Date/Time
EST
Temp
°C
App
Temp
°C
Dew
Point
°C
Rel
Hum
%
Delta-T
°C
Wind Press
QNH
hPa
Press
MSL
hPa
Rain since
9am
mm
Dir  Spd
km/h
Gust
km/h
Spd
kts
Gust
kts
29/11:30pm 23.8 23.6 19.3 76 2.9 SE 19 32 10 17 1016.3 - 0.0
29/11:00pm 23.7 23.4 19.5 77 2.7 SE 20 30 11 16 1016.3 - 0.0
29/10:30pm 23.8 23.6 19.8 78 2.6 SE 20 30 11 16 1016.6 - 0.0
29/10:00pm 23.9 23.9 19.7 77 2.7 SE 19 37 10 20 1016.6 - 0.0
29/09:30pm 24.1 23.5 19.7 76 2.8 SE 22 33 12 18 1016.4 - 0.0
29/09:00pm 24.1 24.3 20.1 78 2.6 SE 19 26 10 14 1016.7 1016.6 0.0
29/08:30pm 24.0 24.1 20.3 80 2.4 SE 20 35 11 19 1016.7 - 0.0
29/08:00pm 23.8 24.3 20.1 80 2.4 SE 17 26 9 14 1016.7 - 0.0
29/07:30pm 23.7 24.4 19.6 78 2.6 SE 15 20 8 11 1016.6 - 0.0
29/07:00pm 24.0 23.6 19.0 73 3.2 SE 19 32 10 17 1016.3 - 0.0
29/06:30pm 23.0 24.3 18.5 76 2.8 ESE 9 11 5 6 1015.8 - 0.0
29/06:00pm 24.2 24.8 18.5 70 3.6 SE 13 19 7 10 1015.3 1015.3 0.0
29/05:30pm 24.6 25.3 18.8 70 3.7 SE 13 17 7 9 1015.1 - 0.0
29/05:00pm 25.0 24.8 18.5 67 4.1 SE 17 30 9 16 1015.0 - 0.0
29/04:30pm 26.0 25.4 18.4 63 4.8 SE 19 26 10 14 1014.8 - 0.0
29/04:00pm 26.2 24.7 17.6 59 5.4 SE 22 35 12 19 1014.6 - 0.0
29/03:30pm 26.4 25.6 18.4 61 5.1 SE 20 39 11 21 1014.8 - 0.0
29/03:00pm 26.7 24.5 17.8 58 5.6 SE 26 37 14 20 1014.5 1014.6 0.0
29/02:30pm 27.4 25.9 18.5 58 5.7 SE 24 41 13 22 1014.6 - 0.0
29/02:00pm 27.3 26.4 19.1 61 5.3 SE 22 39 12 21 1014.8 - 0.0
29/01:30pm 27.0 25.4 19.1 62 5.1 SE 26 41 14 22 1014.9 - 0.0
29/01:00pm 27.1 26.0 19.5 63 4.9 SE 24 37 13 20 1015.3 - 0.0
29/12:30pm 26.9 25.2 18.9 61 5.1 SE 26 44 14 24 1015.6 - 0.0
29/12:00pm 26.8 25.0 19.5 64 4.7 SE 28 44 15 24 1015.9 1016.0 0.0
29/11:30am 26.9 25.1 19.5 64 4.8 SE 28 43 15 23 1016.2 - 0.0
29/11:00am 26.2 24.7 19.5 66 4.3 SE 26 41 14 22 1016.4 - 0.0
29/10:30am 26.0 25.4 19.7 68 4.1 SE 22 41 12 22 1016.4 - 0.0
29/10:00am 26.1 25.5 19.8 68 4.1 SE 22 39 12 21 1016.8 - 0.0
29/09:30am 26.0 25.8 19.7 68 4.1 SE 20 32 11 17 1016.7 - 0.0
29/09:00am 25.2 24.0 19.3 70 3.8 SE 24 35 13 19 1016.4 1016.4 0.0
29/08:30am 24.6 23.6 18.9 70 3.6 SE 22 33 12 18 1016.2 - 0.0
29/08:00am 24.1 23.6 19.1 73 3.2 SE 20 37 11 20 1015.8 - 0.0
29/07:30am 23.3 22.9 18.9 76 2.8 SE 19 32 10 17 1015.5 - 0.0
29/07:00am 23.0 23.2 19.4 80 2.3 SE 17 28 9 15 1015.1 - 0.0
29/06:30am 23.0 23.3 19.6 81 2.2 SE 17 30 9 16 1014.5 - 0.0
29/06:00am 23.1 23.4 19.5 80 2.3 SE 17 30 9 16 1014.4 1014.4 0.0
29/05:30am 23.1 23.5 19.8 82 2.1 SE 17 24 9 13 1014.3 - 0.0
29/05:00am 23.1 23.5 19.8 82 2.1 SE 17 28 9 15 1014.3 - 0.0
29/04:30am 23.3 23.6 19.7 80 2.3 SE 17 26 9 14 1014.3 - 0.0
29/04:00am 23.1 23.4 19.7 81 2.2 SE 17 24 9 13 1014.2 - 0.0
29/03:30am 23.1 23.4 19.7 81 2.2 SE 17 30 9 16 1014.5 - 0.0
29/03:00am 22.7 23.8 19.7 83 1.9 SE 13 20 7 11 1014.7 1014.7 0.0
29/02:30am 22.7 23.9 19.9 84 1.8 SE 13 20 7 11 1014.9 - 0.0
29/02:00am 22.9 23.8 20.1 84 1.8 SE 15 20 8 11 1015.2 - 0.0
29/01:30am 23.2 23.9 20.4 84 1.8 SSE 17 24 9 13 1015.3 - 0.0
29/01:00am 23.3 23.9 20.2 83 2.0 SE 17 24 9 13 1015.2 - 0.0
29/12:30am 23.3 24.1 19.9 81 2.2 SSE 15 20 8 11 1015.5 - 0.0
29/12:00am 23.5 24.6 19.6 79 2.5 SE 13 26 7 14 1015.7 1015.7 0.0
 
Date/Time
EST
Temp
°C
App
Temp
°C
Dew
Point
°C
Rel
Hum
%
Delta-T
°C
Wind Press
QNH
hPa
Press
MSL
hPa
Rain since
9am
mm
Dir  Spd
km/h
Gust
km/h
Spd
kts
Gust
kts
28/11:30pm 23.4 24.3 20.1 82 2.1 SSE 15 24 8 13 1015.6 - 0.0
28/11:00pm 23.4 25.2 20.3 83 2.0 SE 11 19 6 10 1015.7 - 0.0
28/10:30pm 23.5 24.9 20.3 82 2.1 SSE 13 19 7 10 1016.0 - 0.0
28/10:00pm 23.6 24.7 20.5 83 2.0 SE 15 26 8 14 1016.2 - 0.0
28/09:30pm 23.5 25.0 20.6 84 1.9 SE 13 20 7 11 1016.2 - 0.0
28/09:00pm 24.0 24.4 20.6 81 2.2 SSE 19 24 10 13 1016.3 1016.3 0.0
28/08:30pm 24.0 25.3 20.9 83 2.0 SE 15 22 8 12 1016.1 - 0.0
28/08:00pm 23.7 25.1 20.3 81 2.2 SSE 13 20 7 11 1016.0 - 0.0
28/07:30pm 23.8 25.3 19.8 78 2.6 SE 11 15 6 8 1015.7 - 0.0
28/07:00pm 23.7 25.1 19.6 78 2.6 SSE 11 15 6 8 1015.5 - 0.0
28/06:30pm 23.9 24.8 20.0 79 2.5 SSE 15 22 8 12 1015.1 - 0.0
28/06:00pm 24.1 24.8 20.4 80 2.4 SE 17 26 9 14 1014.7 1014.6 0.0
28/05:58pm 24.1 24.7 20.2 79 2.5 SE 17 26 9 14 1014.6 - 0.0
28/05:47pm 24.1 24.8 20.4 80 2.4 SE 17 24 9 13 1014.5 - 0.0
28/05:30pm 24.4 25.9 20.6 79 2.5 SE 13 24 7 13 1014.1 - 0.0
28/05:00pm 24.5 24.6 20.3 77 2.7 SE 20 30 11 16 1013.8 - 0.0
28/04:30pm 25.1 25.1 19.8 72 3.4 SE 19 35 10 19 1013.7 - 0.0
28/04:00pm 26.4 26.1 19.6 66 4.4 SE 20 30 11 16 1013.6 - 0.0
28/03:30pm 26.1 26.0 19.6 67 4.2 SSE 19 26 10 14 1013.5 - 0.0
28/03:00pm 26.1 25.7 19.4 66 4.3 SE 20 33 11 18 1013.6 1013.6 0.0
28/02:30pm 26.8 26.7 19.9 66 4.5 SE 20 32 11 17 1013.6 - 0.0
28/02:00pm 27.3 26.6 19.6 62 5.0 ESE 22 28 12 15 1013.9 - 0.0
28/01:30pm 26.8 25.2 19.2 63 4.9 ESE 26 37 14 20 1014.1 - 0.0
28/01:00pm 27.1 26.2 19.0 61 5.2 SE 22 32 12 17 1014.4 - 0.0
28/12:30pm 26.4 25.3 19.4 65 4.5 SE 24 37 13 20 1014.9 - 0.0
28/12:00pm 26.3 26.2 20.0 68 4.1 ESE 20 37 11 20 1015.3 1015.3 0.0
28/11:30am 25.7 25.5 20.5 73 3.4 SE 22 35 12 19 1015.5 - 0.0
28/11:09am 26.4 26.2 20.6 70 3.8 SE 22 33 12 18 1015.4 - 0.0
28/11:00am 25.8 25.0 20.1 71 3.7 SE 24 37 13 20 1015.4 - 0.0
28/10:30am 25.6 25.2 20.2 72 3.5 ESE 22 32 12 17 1015.7 - 0.0
28/10:29am 25.6 25.6 20.9 75 3.1 ESE 22 32 12 17 1015.8 - 0.0
28/10:00am 25.6 25.6 20.9 75 3.1 SE 22 39 12 21 1015.8 - 0.0
28/09:30am 25.5 26.0 20.8 75 3.1 ESE 19 30 10 16 1015.6 - 0.0
28/09:00am 24.4 25.5 20.4 78 2.6 SE 15 30 8 16 1015.5 1015.6 0.0
28/08:30am 23.5 25.7 20.3 82 2.1 SSW 9 15 5 8 1015.5 - 0.0
28/08:00am 23.8 25.2 20.4 81 2.2 SE 13 20 7 11 1015.1 - 0.0
28/07:30am 23.3 24.8 20.5 84 1.8 SE 13 20 7 11 1014.8 - 0.0
28/07:00am 22.9 24.3 20.4 86 1.6 SE 13 19 7 10 1014.7 - 0.0
28/06:30am 23.0 24.5 20.5 86 1.6 SE 13 20 7 11 1014.3 - 0.0
28/06:00am 23.1 24.9 20.3 84 1.8 SE 11 19 6 10 1014.3 1014.3 0.0
28/05:30am 22.9 24.3 20.4 86 1.6 SE 13 17 7 9 1014.2 - 0.0
28/05:00am 22.5 24.3 20.3 87 1.4 SE 11 15 6 8 1014.2 - 0.0
28/04:30am 22.0 24.4 20.0 88 1.3 ESE 7 13 4 7 1014.1 - 0.0
28/04:00am 22.3 23.9 20.0 87 1.5 SE 11 17 6 9 1014.1 - 0.0
28/03:30am 22.0 23.9 19.8 87 1.4 SE 9 13 5 7 1014.3 - 0.0
28/03:00am 21.8 24.2 20.1 90 1.1 SE 7 11 4 6 1014.6 1014.6 0.0
28/02:30am 22.0 24.4 20.1 89 1.2 SSE 7 9 4 5 1015.0 - 0.0
28/02:00am 22.3 24.8 20.3 88 1.3 SSE 7 13 4 7 1015.4 - 0.0
28/01:30am 22.8 25.0 20.3 86 1.6 SE 9 13 5 7 1015.7 - 0.0
28/01:00am 23.1 25.4 20.6 86 1.6 SE 9 15 5 8 1015.9 - 0.0
28/12:30am 23.1 25.0 20.6 86 1.6 SE 11 17 6 9 1016.0 - 0.0
28/12:00am 23.2 25.1 20.6 85 1.7 SE 11 17 6 9 1016.1 1016.2 0.0
 
Date/Time
EST
Temp
°C
App
Temp
°C
Dew
Point
°C
Rel
Hum
%
Delta-T
°C
Wind Press
QNH
hPa
Press
MSL
hPa
Rain since
9am
mm
Dir  Spd
km/h
Gust
km/h
Spd
kts
Gust
kts
27/11:30pm 23.3 25.1 20.4 84 1.9 SE 11 15 6 8 1016.3 - 0.0
27/11:00pm 23.6 25.1 20.5 83 2.0 SE 13 20 7 11 1016.5 - 0.0
27/10:30pm 23.7 24.6 19.3 76 2.8 SE 13 19 7 10 1016.5 - 0.0
27/10:00pm 23.6 24.0 18.2 71 3.4 ESE 13 20 7 11 1016.4 - 0.0
27/09:30pm 23.4 24.0 18.5 74 3.1 ESE 13 20 7 11 1016.3 - 0.0
27/09:00pm 23.5 24.5 18.6 74 3.1 ESE 11 17 6 9 1016.3 1016.3 0.0
27/08:30pm 23.5 24.9 19.6 79 2.5 ESE 11 17 6 9 1016.0 - 0.0
27/08:00pm 23.4 24.6 20.0 81 2.2 E 13 19 7 10 1015.8 - 0.0
27/07:30pm 23.5 25.1 19.9 80 2.3 ESE 11 20 6 11 1015.4 - 0.0
27/06:30pm 24.1 25.2 20.4 80 2.4 SE 15 20 8 11 1014.8 - 0.0
27/06:00pm 24.6 25.0 19.8 74 3.1 SE 17 24 9 13 1014.5 1014.5 0.0
27/05:30pm 24.7 25.1 19.9 74 3.1 SE 17 24 9 13 1014.3 - 0.0
27/05:00pm 24.7 25.6 20.1 75 3.0 ESE 15 28 8 15 1014.1 - 0.0
27/04:30pm 25.0 24.0 19.6 72 3.5 ESE 24 33 13 18 1013.9 - 0.0
27/04:00pm 25.8 26.0 20.1 71 3.7 SE 19 33 10 18 1013.8 - 0.0
27/03:30pm 25.9 24.9 20.4 71 3.6 ESE 26 39 14 21 1013.7 - 0.0
27/03:00pm 26.5 26.2 20.4 69 4.0 SE 22 33 12 18 1013.7 1013.7 0.0
27/02:30pm 26.4 25.5 19.9 67 4.2 SE 24 35 13 19 1013.8 - 0.0
27/02:00pm 26.4 26.1 20.3 69 4.0 SE 22 32 12 17 1013.8 - 0.0
27/01:30pm 26.4 25.5 19.8 67 4.3 SE 24 33 13 18 1014.1 - 0.0
27/01:00pm 26.7 25.3 19.6 65 4.6 SE 26 35 14 19 1014.4 - 0.0
27/12:30pm 26.9 25.5 19.6 64 4.7 SE 26 37 14 20 1014.8 - 0.0
27/12:00pm 27.1 26.1 19.7 64 4.8 ESE 24 33 13 18 1015.1 1015.1 0.0
27/11:30am 26.4 26.3 19.9 67 4.2 SE 20 33 11 18 1015.5 - 0.0
27/11:00am 26.8 26.6 19.7 65 4.6 SE 20 32 11 17 1015.7 - 0.0
27/10:30am 27.0 26.7 19.6 64 4.8 SE 20 32 11 17 1015.9 - 0.0
27/10:00am 26.6 25.4 19.3 64 4.7 SE 24 35 13 19 1016.1 - 0.0
27/09:30am 26.5 26.5 19.7 66 4.4 SE 19 26 10 14 1016.0 - 0.0
27/09:00am 26.3 26.2 19.6 66 4.3 ESE 19 37 10 20 1016.0 1016.0 0.2

Other Formats:

Comma delimited format used in spreadsheet applications
http://www.bom.gov.au/fwo/IDQ60801/IDQ60801.95283.axf

JavaScript Object Notation format (JSON) in row-major order
http://www.bom.gov.au/fwo/IDQ60801/IDQ60801.95283.json